Pagrindinis puslapis
METAR-TAF:

METAR-TAF

Oro uostai :

Laredo, Teksasas, Jungtinės Amerikos Valstijos

platuma: 27-33N, ilguma: 099-28W, Aukštis: 155 m

Dabartinis oras

Ataskaita buvo paskelbta 57 minutes, ne 05:56 UTC
Vėjas 6 kt iš Pietryčių
Temperatūra 24°C
Drėgmė 89%
Slėgis 1014 hPa
Matomumas: 16.1 km
Giedras dangus

METAR: KLRD 270556Z AUTO 14006KT 10SM CLR 24/22 A2993 RMK AO2 SLP132 T02440217 10300 20244 50011

Laikas: 01:53 (06:53 UTC)

Prognozė

Ataskaita buvo paskelbta 1 valandą ir 33 minutes, ne 05:20 UTC
Prognozė galioja nuo 27 metu 06 UTC su 28 metu 06 UTC
Vėjas 6 kt iš Pietų/Pietryčių
Matomumas: 10 km
Giedras dangus

TAF: KLRD 270520Z 2706/2806 15006KT P6SM SKC

Orai ataskaitas ir orų prognozės (METAR, TAF).

turimą stotys yra geltonos ir raudonos taškus žemėlapyje.

Perkelti pele per norėdami pamatyti stoties vardą.

Tada spustelėkite, norėdami matyti oro stebėjimo ir prognozės.

Norėdami pakeisti žemėlapį: spustelėkite ant žalios mygtukų su juodo kryžiaus žemyn,; žalią mygtuką su brūkšneliu, jei norite nutolinti; arba žalių rodyklių gretimoms žemėlapius.


METAR-TAF: